台北 の空港の天気 - METARとTAF

台湾桃園国際空港 ( RCTP / TPE ) - 台湾 台北市
飛行場実況気象(Metar)
観測時間02/18 07:00 CST (02/17 23:00 UTC)
風向・風速北東 4m/s
視程10km以上
天気現象
少しの雲 雲底高度 270m
全天の4割程度の雲 雲底高度 460m
全天の8割程度の雲 雲底高度 3050m
気温18℃
湿度94%
気圧1016hPa
METARRCTP 172300Z 05007KT 9999 FEW009 SCT015 BKN100 18/17 Q1016 NOSIG RMK A3003
過去の天気等 Google飛行場航空写真 Wunderground天気予報

過去48時間のMETAR

飛行場予報(TAF)
発表時間: 2/18 01:00 CST (2/17 17:00 UTC)
予報対象時間: 18日2時 CST ~ 19日8時 CST
風向・風速北東 8m/s
視程10km以上
全天の4割程度の雲 雲底高度 240m
全天の8割程度の雲 雲底高度 610m
全天の8割程度の雲 雲底高度 910m
18日3時 CST ~ 18日9時 CST に一時的に
風向・風速東 5m/s
少しの雲 雲底高度 150m
全天の8割程度の雲 雲底高度 240m
全天の8割程度の雲 雲底高度 610m
18日9時 CST ~ 18日11時 CST に一時的に
風向・風速東南東 5m/s
全天の4割程度の雲 雲底高度 300m
全天の8割程度の雲 雲底高度 980m
18日19時 CST ~ 18日21時 CST に徐々に
風向・風速南南西 3m/s
全天の4割程度の雲 雲底高度 180m
全天の8割程度の雲 雲底高度 340m
全天の8割程度の雲 雲底高度 610m
18日22時 CST ~ 19日4時 CST に一時的に
風向・風速西 3m/s
視程4000m
天気現象
全天の4割程度の雲 雲底高度 90m
全天の8割程度の雲 雲底高度 180m
全天の8割程度の雲 雲底高度 460m
TAF RCTP 171700Z 1718/1824 05015KT 9999 SCT008 BKN020 BKN030
TEMPO 1719/1801 08010KT FEW005 BKN008 BKN020
TEMPO 1801/1803 12010KT SCT010 BKN032
BECMG 1811/1813 20005KT SCT006 BKN011 BKN020
TEMPO 1814/1820 27005KT 4000 RA SCT003 BKN006 BKN015